Rosecrans Memorial Airport St Joseph US
ICAO: KSTJ
IATA: STJ
Category: Medium
Scheduled Services: No

Elevation: 826 ft
TransAlt. 18000 ft.

Airport Communications:
ST JOSEPH APP/DEP:120.35
ATIS:125.05
CTAF:126.9
GND:121.9
ANG COMD POST:34.94
ST JOSEPH TWR:126.9
UNICOM:122.95

KSTJ Zoom In..

If you have problems with the map follow the link
https://www.worldairports.se/pages/airport.php?
ICAO=KSTJ

Runways:

(A) RW 13 length 4797 ft width 75 ft
---- / hdg 132

(B) RW 17 length 8061 ft width 150 ft
---- / hdg 176

(C) RW 31 length 4797 ft width 75 ft
---- / hdg 312

(D) RW 35 length 8061 ft width 150 ft
ILS 110.30 / hdg 356

Location; KSTJ
Day. 08 / Time. 17.53 Zulu
* Altimeter: 29.79
* Temperature: 09° c. 48.2°f.
* Wind from: 200° Speed 10 kn.
Dewpoint: 05° c.
Visibility: 7 Statute Miles.
Clouds: Few 1500 ft.

KSTJ 081753Z 20010KT 7SM FEW015 09/05 A2979 RMK AO2 SLP089 T00940050 10094 20033 58018


Wind From 200°
Speed 10 kn.

 
 
jpsmedia worldairports.se 2019   terms of use